DW6416 Weather Reports


Display with metric or nautical units.
time (UTC)temp
F
wind
direction
speed
MPH
gust
MPH
rain 1hr
in
rain 24hr
in
rain mn
in
humidity
%
barometer
mb
20180720182618 71 193 0.0 1.0 0.02 0.41 0.41 94 1013.1
20180720182116 71 193 0.0 0.0 0.01 0.40 0.40 95 1013.2
20180720181633 71 193 0.0 4.0 0.01 0.40 0.40 95 1013.2
20180720181129 71 193 0.0 4.0 0.01 0.40 0.40 95 1013.3
20180720180626 71 193 0.0 3.0 0.01 0.40 0.40 96 1013.4
20180720180131 71 193 0.0 1.0 0.01 0.40 0.40 95 1013.1
20180720175626 70 193 0.0 0.0 0.01 0.40 0.40 95 1013.0
20180720175119 70 193 0.0 1.0 0.01 0.40 0.40 94 1013.0
20180720174613 70 193 0.0 4.0 0.01 0.40 0.40 94 1013.2
20180720174132 70 193 0.0 4.0 0.00 0.39 0.39 94 1013.2
20180720173627 70 193 2.0 4.0 0.00 0.39 0.39 94 1013.2
20180720173126 70 204 1.0 3.0 0.00 0.39 0.39 94 1013.1
20180720172621 70 208 0.0 5.0 0.00 0.39 0.39 94 1013.1
20180720172119 70 189 1.0 5.0 0.00 0.39 0.39 95 1013.2
20180720171615 70 188 0.0 4.0 0.00 0.39 0.39 95 1013.1
20180720171131 70 188 0.0 4.0 0.00 0.39 0.39 95 1013.1
20180720170626 70 194 0.0 5.0 0.00 0.39 0.39 95 1013.2
20180720170114 70 195 1.0 5.0 0.00 0.39 0.39 95 1013.2
20180720165632 70 197 0.0 2.0 0.00 0.39 0.39 95 1013.1
20180720165127 70 198 0.0 3.0 0.00 0.39 0.39 95 1013.1
20180720164623 70 198 0.0 2.0 0.00 0.39 0.39 95 1013.1
20180720164116 70 198 0.0 3.0 0.00 0.39 0.39 95 1013.2
20180720163631 70 198 0.0 3.0 0.00 0.39 0.39 95 1013.4
20180720163126 70 198 0.0 4.0 0.00 0.39 0.39 95 1013.6
20180720162620 70 198 0.0 1.0 0.00 0.39 0.39 95 1013.7
20180720162118 70 198 0.0 4.0 0.01 0.39 0.39 95 1013.7
20180720161616 70 198 0.0 4.0 0.01 0.39 0.39 95 1013.7
20180720161116 69 224 0.0 4.0 0.02 0.39 0.39 95 1013.6
20180720160614 69 225 0.0 2.0 0.03 0.39 0.39 95 1013.8
20180720160122 69 227 0.0 1.0 0.04 0.39 0.39 95 1013.7
20180720155618 69 227 0.0 1.0 0.05 0.39 0.39 96 1013.5
20180720155115 69 227 0.0 1.0 0.07 0.39 0.39 96 1013.2
20180720154629 69 227 0.0 1.0 0.13 0.39 0.39 95 1013.2
20180720154123 69 227 0.0 0.0 0.16 0.39 0.39 96 1013.2
20180720153618 69 227 0.0 2.0 0.23 0.39 0.39 96 1013.3
20180720153132 69 227 0.0 2.0 0.28 0.39 0.39 95 1013.4
20180720152627 69 227 0.0 0.0 0.31 0.39 0.39 95 1013.2
20180720152122 69 227 0.0 1.0 0.37 0.38 0.38 94 1013.3
20180720151617 69 227 0.0 1.0 0.38 0.38 0.38 94 1013.4
20180720151132 69 228 0.0 0.0 0.37 0.37 0.37 94 1013.3
20180720150628 69 228 0.0 0.0 0.36 0.36 0.36 93 1013.1
20180720150116 69 228 0.0 0.0 0.35 0.35 0.35 92 1013.0
20180720145614 70 228 0.0 0.0 0.34 0.34 0.34 91 1013.3
20180720145129 70 228 0.0 3.0 0.32 0.32 0.32 90 1013.5
20180720144626 71 228 0.0 3.0 0.26 0.26 0.26 89 1013.8
20180720144125 72 229 0.0 6.0 0.23 0.23 0.23 87 1014.5
20180720143621 72 229 1.0 8.0 0.16 0.16 0.16 85 1014.2
20180720143115 73 250 1.0 10.0 0.11 0.11 0.11 84 1014.2
20180720142631 74 220 5.0 10.0 0.08 0.08 0.08 82 1014.2
20180720142125 75 250 3.0 9.0 0.00 0.00 0.00 81 1014.0
20180720141622 75 225 3.0 7.0 0.00 0.00 0.00 80 1013.9
20180720141118 75 231 1.0 6.0 0.00 0.00 0.00 80 1013.9
20180720140614 75 248 1.0 7.0 0.00 0.00 0.00 80 1013.9
20180720140122 76 234 2.0 9.0 0.00 0.00 0.00 79 1013.7
20180720135617 76 199 3.0 9.0 0.00 0.00 0.00 79 1013.7
20180720135111 76 237 1.0 8.0 0.00 0.00 0.00 80 1013.7
20180720134629 76 210 2.0 8.0 0.00 0.00 0.00 80 1013.7
20180720134126 76 204 2.0 10.0 0.00 0.00 0.00 82 1013.7
20180720133619 75 243 3.0 10.0 0.00 0.00 0.00 82 1013.7
20180720133116 75 193 1.0 8.0 0.00 0.00 0.00 82 1013.7
20180720132630 75 173 3.0 10.0 0.00 0.00 0.00 81 1013.7
20180720132123 75 217 2.0 11.0 0.00 0.00 0.00 82 1013.7
20180720131622 75 197 0.0 8.0 0.00 0.00 0.00 83 1013.7
20180720131117 75 183 3.0 8.0 0.00 0.00 0.00 84 1013.7
20180720130611 74 208 0.0 4.0 0.00 0.00 0.00 85 1013.7
20180720130121 74 189 0.0 4.0 0.00 0.00 0.00 85 1013.7
20180720125616 73 207 2.0 5.0 0.00 0.00 0.00 85 1013.7
20180720125132 73 187 1.0 5.0 0.00 0.00 0.00 85 1013.6
20180720124629 73 177 1.0 4.0 0.00 0.00 0.00 85 1013.6
20180720124126 73 176 1.0 5.0 0.00 0.00 0.00 85 1013.7
20180720123622 73 175 1.0 5.0 0.00 0.00 0.00 86 1013.6
20180720123121 72 186 0.0 3.0 0.00 0.00 0.00 86 1013.5
20180720122616 72 187 1.0 3.0 0.00 0.00 0.00 86 1013.5
20180720122127 72 186 0.0 1.0 0.00 0.00 0.00 87 1013.5
20180720121621 71 186 0.0 3.0 0.00 0.00 0.00 88 1013.5
20180720121115 71 186 1.0 3.0 0.00 0.00 0.00 88 1013.5
20180720120633 71 186 0.0 2.0 0.00 0.00 0.00 88 1013.5
20180720120120 70 160 0.0 3.0 0.00 0.00 0.00 89 1013.5
20180720115619 70 160 0.0 3.0 0.00 0.00 0.00 89 1013.5
20180720115118 70 160 0.0 3.0 0.00 0.00 0.00 90 1013.5
20180720114614 70 160 0.0 3.0 0.00 0.00 0.00 90 1013.3
20180720114131 69 160 0.0 1.0 0.00 0.00 0.00 91 1013.4
20180720113628 69 160 0.0 0.0 0.00 0.00 0.00 92 1013.4
20180720113122 69 160 0.0 0.0 0.00 0.00 0.00 92 1013.3
20180720112617 68 160 0.0 0.0 0.00 0.00 0.00 93 1013.3
20180720112131 68 160 0.0 0.0 0.00 0.00 0.00 93 1013.3
20180720111624 67 160 0.0 0.0 0.00 0.00 0.00 94 1013.3
20180720111121 67 160 0.0 0.0 0.00 0.00 0.00 94 1013.3
20180720110615 66 160 0.0 0.0 0.00 0.00 0.00 94 1013.3
20180720110121 66 160 0.0 0.0 0.00 0.00 0.00 94 1013.2
20180720105617 66 160 0.0 0.0 0.00 0.00 0.00 94 1013.3
20180720105113 65 160 0.0 0.0 0.00 0.00 0.00 95 1013.3
20180720104631 65 160 0.0 0.0 0.00 0.00 0.00 95 1013.2
20180720104128 65 160 0.0 0.0 0.00 0.00 0.00 95 1013.2
20180720103624 64 160 0.0 0.0 0.00 0.00 0.00 95 1013.2
20180720103121 64 160 0.0 0.0 0.00 0.00 0.00 95 1013.1
20180720102621 64 160 0.0 0.0 0.00 0.00 0.00 95 1013.2
20180720102134 63 160 0.0 0.0 0.00 0.00 0.00 94 1013.2
20180720101627 63 160 0.0 0.0 0.00 0.00 0.00 94 1013.2
20180720101121 63 160 0.0 0.0 0.00 0.00 0.00 94 1013.2
20180720100616 62 160 0.0 0.0 0.00 0.00 0.00 92 1013.2
20180720100123 63 160 0.0 0.0 0.00 0.00 0.00 92 1013.2
20180720095618 63 160 0.0 0.0 0.00 0.00 0.00 92 1013.2
20180720095133 63 160 0.0 0.0 0.00 0.00 0.00 92 1013.2
20180720094628 63 160 0.0 0.0 0.00 0.00 0.00 93 1013.1
20180720094124 63 160 0.0 0.0 0.00 0.00 0.00 92 1013.1
20180720093620 63 160 0.0 0.0 0.00 0.00 0.00 91 1013.2
20180720093115 63 160 0.0 0.0 0.00 0.00 0.00 90 1013.1
20180720092613 63 160 0.0 0.0 0.00 0.00 0.00 91 1013.2
20180720092132 63 160 0.0 0.0 0.00 0.00 0.00 92 1013.2
20180720091627 63 160 0.0 0.0 0.00 0.00 0.00 92 1013.1
20180720091121 63 160 0.0 0.0 0.00 0.00 0.00 91 1013.2
20180720090614 63 160 0.0 0.0 0.00 0.00 0.00 91 1013.1
20180720090122 63 160 0.0 0.0 0.00 0.00 0.00 92 1013.1
20180720085623 63 160 0.0 0.0 0.00 0.00 0.00 92 1013.1
20180720085117 63 160 0.0 0.0 0.00 0.00 0.00 91 1013.3
20180720084634 63 160 0.0 0.0 0.00 0.00 0.00 91 1013.2
20180720084130 63 160 0.0 0.0 0.00 0.00 0.00 91 1013.2
20180720083626 62 160 0.0 0.0 0.00 0.00 0.00 92 1013.2
20180720083121 62 160 0.0 0.0 0.00 0.00 0.00 92 1013.2
20180720082618 61 160 0.0 0.0 0.00 0.00 0.00 92 1013.2
20180720082115 61 160 0.0 0.0 0.00 0.00 0.00 92 1013.2
20180720081630 61 160 0.0 0.0 0.00 0.00 0.00 92 1013.2
20180720081125 61 160 0.0 0.0 0.00 0.00 0.00 92 1013.3
20180720080620 61 160 0.0 0.0 0.00 0.00 0.00 93 1013.3
20180720080127 60 160 0.0 0.0 0.00 0.00 0.00 93 1013.3
20180720075624 60 160 0.0 0.0 0.00 0.00 0.00 93 1013.4
20180720075118 60 160 0.0 0.0 0.00 0.00 0.00 93 1013.4
20180720074634 60 160 0.0 0.0 0.00 0.00 0.00 93 1013.5
20180720074130 60 160 0.0 0.0 0.00 0.00 0.00 93 1013.5
20180720073626 60 160 0.0 0.0 0.00 0.00 0.00 93 1013.5
20180720073126 60 160 0.0 0.0 0.00 0.00 0.00 93 1013.7
20180720072622 60 160 0.0 0.0 0.00 0.00 0.00 92 1013.7
20180720072118 60 160 0.0 0.0 0.00 0.00 0.00 92 1013.8
20180720071632 60 160 0.0 0.0 0.00 0.00 0.00 92 1013.8
20180720071129 60 160 0.0 0.0 0.00 0.00 0.00 92 1013.7
20180720070624 60 160 0.0 0.0 0.00 0.00 0.00 92 1013.7
20180720070130 60 160 0.0 0.0 0.00 0.00 0.00 92 1013.8
20180720065623 60 160 0.0 0.0 0.00 0.00 0.00 92 1013.7
20180720065118 60 160 0.0 0.0 0.00 0.00 0.00 91 1013.8
20180720064633 60 160 0.0 0.0 0.00 0.00 0.00 91 1013.7
20180720064128 60 160 0.0 0.0 0.00 0.00 0.00 91 1013.8
20180720063624 61 160 0.0 0.0 0.00 0.00 0.00 90 1013.9
20180720063120 61 160 0.0 0.0 0.00 0.00 0.00 90 1014.0
20180720062616 61 160 0.0 0.0 0.00 0.00 0.00 89 1014.0
20180720062133 61 160 0.0 0.0 0.00 0.00 0.00 89 1014.0
20180720061630 61 160 0.0 0.0 0.00 0.00 0.00 89 1014.0
20180720061127 61 160 0.0 0.0 0.00 0.00 0.00 89 1014.1
20180720060627 61 160 0.0 0.0 0.00 0.00 0.00 89 1014.2
20180720060132 61 160 0.0 0.0 0.00 0.00 0.00 89 1014.1
20180720055627 62 160 0.0 0.0 0.00 0.00 0.00 88 1014.0
20180720055121 62 160 0.0 0.0 0.00 0.00 0.00 88 1014.0
20180720054616 62 160 0.0 0.0 0.00 0.00 0.00 87 1014.0
20180720054130 62 160 0.0 0.0 0.00 0.00 0.00 87 1014.2
20180720053628 63 160 0.0 0.0 0.00 0.00 0.00 87 1014.3
20180720053123 63 160 0.0 0.0 0.00 0.00 0.00 86 1014.3
20180720052619 63 160 0.0 0.0 0.00 0.00 0.00 86 1014.5
20180720052115 63 160 0.0 0.0 0.00 0.00 0.00 86 1014.5
20180720051632 63 160 0.0 0.0 0.00 0.00 0.00 86 1014.5
20180720051128 63 160 0.0 0.0 0.00 0.00 0.00 86 1014.5
20180720050627 63 160 0.0 0.0 0.00 0.00 0.00 87 1014.6
20180720050115 63 160 0.0 0.0 0.00 0.00 0.00 86 1014.7
20180720045629 64 160 0.0 0.0 0.00 0.00 0.00 86 1014.7
20180720045123 63 160 0.0 0.0 0.00 0.00 0.00 87 1014.6
20180720044618 63 160 0.0 0.0 0.00 0.00 0.00 87 1014.7
20180720044116 63 160 0.0 0.0 0.00 0.00 0.00 89 1014.7
20180720043631 63 160 0.0 0.0 0.00 0.00 0.00 88 1014.8
20180720043127 63 160 0.0 0.0 0.00 0.00 0.00 87 1014.9
20180720042623 63 160 0.0 0.0 0.00 0.00 0.00 86 1015.0
20180720042119 63 160 0.0 0.0 0.00 0.00 0.00 86 1015.1
20180720041633 63 160 0.0 0.0 0.00 0.00 0.00 85 1015.2
20180720041130 64 160 0.0 0.0 0.00 0.00 0.00 85 1015.2
20180720040630 64 160 0.0 0.0 0.00 0.00 0.00 85 1015.2
20180720040117 64 160 0.0 0.0 0.00 0.00 0.00 85 1015.2
20180720035633 65 160 0.0 0.0 0.00 0.00 0.00 85 1015.2
20180720035126 65 160 0.0 0.0 0.00 0.00 0.00 83 1015.1
20180720034620 65 160 0.0 0.0 0.00 0.00 0.00 83 1015.1
20180720034114 65 160 0.0 0.0 0.00 0.00 0.00 84 1015.1
20180720033629 65 160 0.0 0.0 0.00 0.00 0.00 84 1015.1
20180720033124 65 160 0.0 0.0 0.00 0.00 0.00 84 1015.1
20180720032621 65 160 0.0 0.0 0.00 0.00 0.00 84 1015.2
20180720032116 65 160 0.0 0.0 0.00 0.00 0.00 84 1015.2
20180720031619 66 160 0.0 0.0 0.00 0.00 0.00 83 1015.3
20180720031114 66 160 0.0 0.0 0.00 0.00 0.00 83 1015.3
20180720030632 66 160 0.0 0.0 0.00 0.00 0.00 83 1015.3
20180720030123 66 160 0.0 0.0 0.00 0.00 0.00 83 1015.4
20180720025620 66 160 0.0 0.0 0.00 0.00 0.00 83 1015.4
20180720025134 66 160 0.0 0.0 0.00 0.00 0.00 82 1015.5
20180720024629 66 160 0.0 0.0 0.00 0.00 0.00 83 1015.5
20180720024123 66 160 0.0 0.0 0.00 0.00 0.00 82 1015.6
20180720023617 67 160 0.0 0.0 0.00 0.00 0.00 82 1015.6
20180720023132 67 160 0.0 0.0 0.00 0.00 0.00 81 1015.5
20180720022625 67 160 0.0 0.0 0.00 0.00 0.00 81 1015.5
20180720022121 67 160 0.0 0.0 0.00 0.00 0.00 80 1015.5
20180720021619 68 160 0.0 0.0 0.00 0.00 0.00 80 1015.5
20180720021115 68 160 0.0 0.0 0.00 0.00 0.00 79 1015.4
20180720020635 68 160 0.0 0.0 0.00 0.00 0.00 79 1015.4
20180720020119 69 160 0.0 0.0 0.00 0.00 0.00 79 1015.4
20180720015616 69 160 0.0 0.0 0.00 0.00 0.00 78 1015.4
20180720015117 69 160 0.0 0.0 0.00 0.00 0.00 77 1015.3
20180720014632 69 160 0.0 0.0 0.00 0.00 0.00 77 1015.3
20180720014126 70 160 0.0 0.0 0.00 0.00 0.00 77 1015.2
20180720013620 70 160 0.0 0.0 0.00 0.00 0.00 76 1015.2
20180720013135 70 160 0.0 0.0 0.00 0.00 0.00 76 1015.2
20180720012628 71 160 0.0 0.0 0.00 0.00 0.00 74 1015.2
20180720012123 72 160 0.0 0.0 0.00 0.00 0.00 73 1015.2
20180720011618 72 160 0.0 0.0 0.00 0.00 0.00 72 1015.2
20180720011133 73 160 0.0 0.0 0.00 0.00 0.00 71 1015.2
20180720010630 73 160 0.0 0.0 0.00 0.00 0.00 70 1015.2
20180720010118 73 160 0.0 0.0 0.00 0.00 0.00 69 1015.1
20180720005634 73 159 0.0 0.0 0.00 0.00 0.00 68 1015.0
20180720005131 74 160 0.0 0.0 0.00 0.00 0.00 68 1014.9
20180720004628 74 159 0.0 0.0 0.00 0.00 0.00 68 1015.0
20180720004122 75 159 0.0 0.0 0.00 0.00 0.00 67 1015.0
20180720003616 75 159 0.0 0.0 0.00 0.00 0.00 66 1015.0
20180720003130 76 159 0.0 0.0 0.00 0.00 0.00 64 1015.0
20180720002624 76 159 0.0 0.0 0.00 0.00 0.00 62 1015.0
20180720002122 77 159 0.0 0.0 0.00 0.00 0.00 60 1015.0
20180720001617 77 159 0.0 0.0 0.00 0.00 0.00 58 1015.0
20180720001133 78 159 0.0 0.0 0.00 0.00 0.00 57 1015.1
20180720000627 78 159 0.0 0.0 0.00 0.00 0.00 56 1015.0
20180720000135 78 159 0.0 0.0 0.00 0.00 0.00 57 1015.0
20180719235630 78 159 0.0 0.0 0.00 0.00 0.00 58 1015.1
20180719235129 79 159 0.0 0.0 0.00 0.00 0.00 57 1015.1
20180719234626 79 159 0.0 0.0 0.00 0.00 0.00 57 1015.1
20180719234122 79 159 0.0 1.0 0.00 0.00 0.00 56 1015.1
20180719233617 79 159 0.0 1.0 0.00 0.00 0.00 55 1015.2
20180719233132 79 159 0.0 3.0 0.00 0.00 0.00 54 1015.1
20180719232627 79 159 1.0 3.0 0.00 0.00 0.00 55 1015.2
20180719232121 80 160 1.0 3.0 0.00 0.00 0.00 54 1015.2
20180719231635 80 160 0.0 1.0 0.00 0.00 0.00 54 1015.1
20180719231130 80 160 0.0 1.0 0.00 0.00 0.00 52 1015.2
20180719230625 80 160 0.0 3.0 0.00 0.00 0.00 53 1015.2
20180719230133 80 160 1.0 3.0 0.00 0.00 0.00 53 1015.2
20180719225628 80 161 0.0 4.0 0.00 0.00 0.00 53 1015.4
20180719225127 80 161 1.0 4.0 0.00 0.00 0.00 53 1015.3
20180719224626 80 161 3.0 4.0 0.00 0.00 0.00 51 1015.4
20180719224123 80 161 2.0 4.0 0.00 0.00 0.00 51 1015.5
20180719223620 80 162 0.0 3.0 0.00 0.00 0.00 51 1015.5
20180719223132 80 162 0.0 4.0 0.00 0.00 0.00 50 1015.6
20180719222626 81 162 2.0 4.0 0.00 0.00 0.00 49 1015.5
20180719222119 81 162 3.0 4.0 0.00 0.00 0.00 48 1015.5
20180719221632 81 163 0.0 3.0 0.00 0.00 0.00 47 1015.6
20180719221126 81 163 1.0 3.0 0.00 0.00 0.00 47 1015.6
20180719220623 81 163 0.0 4.0 0.00 0.00 0.00 47 1015.7
20180719220131 81 163 0.0 4.0 0.00 0.00 0.00 48 1015.9
20180719215626 81 121 0.0 2.0 0.00 0.00 0.00 48 1015.8
20180719215124 81 121 0.0 4.0 0.00 0.00 0.00 47 1015.9
20180719214620 81 100 2.0 4.0 0.00 0.00 0.00 46 1016.0
20180719214116 81 99 0.0 3.0 0.00 0.00 0.00 47 1016.0
20180719213633 81 100 2.0 3.0 0.00 0.00 0.00 46 1016.1
20180719213127 81 100 0.0 3.0 0.00 0.00 0.00 48 1016.2
20180719212625 81 100 1.0 3.0 0.00 0.00 0.00 47 1016.2
20180719212120 81 100 0.0 1.0 0.00 0.00 0.00 48 1016.3
20180719211634 81 100 0.0 1.0 0.00 0.00 0.00 48 1016.4
20180719211128 81 100 0.0 3.0 0.00 0.00 0.00 49 1016.2
20180719210623 81 100 0.0 3.0 0.00 0.00 0.00 47 1016.3
20180719210131 81 100 0.0 0.0 0.00 0.00 0.00 49 1016.3
20180719205629 81 100 0.0 3.0 0.00 0.00 0.00 46 1016.4
20180719205125 81 100 1.0 3.0 0.00 0.00 0.00 45 1016.5
20180719204620 81 100 0.0 0.0 0.00 0.00 0.00 46 1016.6
20180719204116 80 104 0.0 3.0 0.00 0.00 0.00 49 1016.6
20180719203614 80 104 2.0 3.0 0.00 0.00 0.00 48 1016.7
20180719203134 80 104 2.0 3.0 0.00 0.00 0.00 50 1016.7
20180719202630 81 104 1.0 5.0 0.00 0.00 0.00 49 1016.6
20180719202125 81 104 2.0 5.0 0.00 0.00 0.00 49 1016.6
20180719201619 81 98 2.0 3.0 0.00 0.00 0.00 49 1016.7
20180719201133 81 98 0.0 1.0 0.00 0.00 0.00 49 1016.6
20180719200628 81 98 0.0 4.0 0.00 0.00 0.00 49 1016.7
20180719200118 81 98 1.0 4.0 0.00 0.00 0.00 51 1016.7
20180719195633 81 89 0.0 2.0 0.00 0.00 0.00 51 1016.7
20180719195131 80 89 0.0 1.0 0.00 0.00 0.00 50 1016.7
20180719194627 81 86 0.0 2.0 0.00 0.00 0.00 50 1016.8
20180719194123 81 88 0.0 2.0 0.00 0.00 0.00 50 1016.9
20180719193619 81 129 0.0 1.0 0.00 0.00 0.00 52 1016.8
20180719193136 81 129 0.0 1.0 0.00 0.00 0.00 53 1016.9
20180719192632 80 129 0.0 2.0 0.00 0.00 0.00 50 1016.9
20180719192126 80 130 0.0 2.0 0.00 0.00 0.00 50 1016.9
20180719191620 80 130 0.0 4.0 0.00 0.00 0.00 50 1016.9
20180719191133 80 130 1.0 4.0 0.00 0.00 0.00 48 1017.0
20180719190628 80 153 0.0 3.0 0.00 0.00 0.00 46 1017.0
20180719190134 80 153 0.0 3.0 0.00 0.00 0.00 49 1017.0
20180719185629 79 125 0.0 1.0 0.00 0.00 0.00 50 1017.0
20180719185123 80 125 0.0 3.0 0.00 0.00 0.00 52 1017.1
20180719184619 80 125 0.0 3.0 0.00 0.00 0.00 51 1017.1
20180719184136 80 125 0.0 3.0 0.00 0.00 0.00 53 1017.1
20180719183631 80 168 0.0 4.0 0.00 0.00 0.00 51 1017.1
20180719183132 81 168 2.0 4.0 0.00 0.00 0.00 50 1017.3